sensor_id;sensor_type;location;lat;lon;timestamp;P1;durP1;ratioP1;P2;durP2;ratioP2
56593;SDS011;42474;51.660;5.824;2022-09-09T00:03:17;1.8;;;1.4;;
56593;SDS011;42474;51.660;5.824;2022-09-09T00:08:39;2.3;;;1.6;;
56593;SDS011;42474;51.660;5.824;2022-09-09T00:13:28;2.9;;;1.8;;
56593;SDS011;42474;51.660;5.824;2022-09-09T00:18:21;2.1;;;1.5;;
56593;SDS011;42474;51.660;5.824;2022-09-09T00:23:23;2.6;;;1.7;;
56593;SDS011;42474;51.660;5.824;2022-09-09T00:28:19;2.1;;;1.8;;
56593;SDS011;42474;51.660;5.824;2022-09-09T00:33:20;2.3;;;1.7;;
56593;SDS011;42474;51.660;5.824;2022-09-09T00:38:21;2.9;;;1.8;;
56593;SDS011;42474;51.660;5.824;2022-09-09T00:43:25;4.1;;;1.8;;
56593;SDS011;42474;51.660;5.824;2022-09-09T00:48:17;4.2;;;1.6;;
56593;SDS011;42474;51.660;5.824;2022-09-09T00:54:33;2.4;;;1.7;;
56593;SDS011;42474;51.660;5.824;2022-09-09T00:58:17;4.0;;;1.9;;
56593;SDS011;42474;51.660;5.824;2022-09-09T01:18:23;3.3;;;2.0;;
56593;SDS011;42474;51.660;5.824;2022-09-09T01:23:36;2.8;;;1.9;;
56593;SDS011;42474;51.660;5.824;2022-09-09T01:28:24;3.6;;;1.8;;
56593;SDS011;42474;51.660;5.824;2022-09-09T01:33:17;4.1;;;1.9;;
56593;SDS011;42474;51.660;5.824;2022-09-09T01:38:17;4.0;;;1.9;;
56593;SDS011;42474;51.660;5.824;2022-09-09T01:43:17;2.4;;;1.9;;
56593;SDS011;42474;51.660;5.824;2022-09-09T01:48:17;4.9;;;1.8;;
56593;SDS011;42474;51.660;5.824;2022-09-09T01:53:17;3.2;;;1.8;;
56593;SDS011;42474;51.660;5.824;2022-09-09T01:58:47;3.6;;;2.3;;
56593;SDS011;42474;51.660;5.824;2022-09-09T02:03:21;4.0;;;2.3;;
56593;SDS011;42474;51.660;5.824;2022-09-09T02:08:19;3.4;;;1.9;;
56593;SDS011;42474;51.660;5.824;2022-09-09T02:13:19;4.2;;;2.0;;
56593;SDS011;42474;51.660;5.824;2022-09-09T02:18:27;4.1;;;2.0;;
56593;SDS011;42474;51.660;5.824;2022-09-09T02:23:17;3.4;;;2.0;;
56593;SDS011;42474;51.660;5.824;2022-09-09T02:28:17;5.0;;;2.1;;
56593;SDS011;42474;51.660;5.824;2022-09-09T02:33:17;3.6;;;2.0;;
56593;SDS011;42474;51.660;5.824;2022-09-09T02:38:17;5.9;;;2.2;;
56593;SDS011;42474;51.660;5.824;2022-09-09T02:43:17;4.4;;;2.3;;
56593;SDS011;42474;51.660;5.824;2022-09-09T02:49:02;4.2;;;2.3;;
56593;SDS011;42474;51.660;5.824;2022-09-09T02:53:18;4.6;;;2.5;;
56593;SDS011;42474;51.660;5.824;2022-09-09T02:58:17;6.6;;;2.4;;
56593;SDS011;42474;51.660;5.824;2022-09-09T03:03:17;5.0;;;2.4;;
56593;SDS011;42474;51.660;5.824;2022-09-09T03:08:17;5.6;;;2.4;;
56593;SDS011;42474;51.660;5.824;2022-09-09T03:13:17;4.5;;;2.4;;
56593;SDS011;42474;51.660;5.824;2022-09-09T03:18:17;7.3;;;2.2;;
56593;SDS011;42474;51.660;5.824;2022-09-09T03:23:17;4.4;;;2.3;;
56593;SDS011;42474;51.660;5.824;2022-09-09T03:28:17;3.6;;;2.0;;
56593;SDS011;42474;51.660;5.824;2022-09-09T03:33:17;5.3;;;2.3;;
56593;SDS011;42474;51.660;5.824;2022-09-09T03:38:17;3.1;;;2.1;;
56593;SDS011;42474;51.660;5.824;2022-09-09T03:43:17;4.0;;;2.2;;
56593;SDS011;42474;51.660;5.824;2022-09-09T03:48:17;4.0;;;2.2;;
56593;SDS011;42474;51.660;5.824;2022-09-09T03:53:17;4.0;;;2.4;;
56593;SDS011;42474;51.660;5.824;2022-09-09T03:58:17;6.3;;;2.6;;
56593;SDS011;42474;51.660;5.824;2022-09-09T04:03:17;4.3;;;2.1;;
56593;SDS011;42474;51.660;5.824;2022-09-09T04:08:17;5.7;;;2.6;;
56593;SDS011;42474;51.660;5.824;2022-09-09T04:13:17;6.3;;;2.2;;
56593;SDS011;42474;51.660;5.824;2022-09-09T04:18:17;7.1;;;2.6;;
56593;SDS011;42474;51.660;5.824;2022-09-09T04:23:17;6.3;;;2.5;;
56593;SDS011;42474;51.660;5.824;2022-09-09T04:28:20;4.7;;;2.4;;
56593;SDS011;42474;51.660;5.824;2022-09-09T04:33:17;6.5;;;2.6;;
56593;SDS011;42474;51.660;5.824;2022-09-09T04:38:17;6.8;;;2.4;;
56593;SDS011;42474;51.660;5.824;2022-09-09T04:43:17;7.2;;;2.6;;
56593;SDS011;42474;51.660;5.824;2022-09-09T04:48:17;7.2;;;2.4;;
56593;SDS011;42474;51.660;5.824;2022-09-09T04:53:17;6.0;;;2.4;;
56593;SDS011;42474;51.660;5.824;2022-09-09T04:58:17;6.0;;;2.3;;
56593;SDS011;42474;51.660;5.824;2022-09-09T05:03:17;6.4;;;2.5;;
56593;SDS011;42474;51.660;5.824;2022-09-09T05:08:17;5.3;;;2.4;;
56593;SDS011;42474;51.660;5.824;2022-09-09T05:13:17;5.9;;;2.5;;
56593;SDS011;42474;51.660;5.824;2022-09-09T05:18:17;8.9;;;2.8;;
56593;SDS011;42474;51.660;5.824;2022-09-09T05:23:17;6.4;;;2.1;;
56593;SDS011;42474;51.660;5.824;2022-09-09T05:28:17;5.1;;;2.4;;
56593;SDS011;42474;51.660;5.824;2022-09-09T05:33:17;5.8;;;2.1;;
56593;SDS011;42474;51.660;5.824;2022-09-09T05:38:17;6.0;;;2.2;;
56593;SDS011;42474;51.660;5.824;2022-09-09T05:43:17;6.6;;;2.2;;
56593;SDS011;42474;51.660;5.824;2022-09-09T05:48:17;5.3;;;2.6;;
56593;SDS011;42474;51.660;5.824;2022-09-09T05:53:17;6.8;;;2.2;;
56593;SDS011;42474;51.660;5.824;2022-09-09T05:58:17;5.7;;;2.2;;
56593;SDS011;42474;51.660;5.824;2022-09-09T06:03:17;6.0;;;2.0;;
56593;SDS011;42474;51.660;5.824;2022-09-09T06:08:17;7.0;;;2.0;;
56593;SDS011;42474;51.660;5.824;2022-09-09T06:13:17;3.6;;;2.1;;
56593;SDS011;42474;51.660;5.824;2022-09-09T06:18:17;4.7;;;2.2;;
56593;SDS011;42474;51.660;5.824;2022-09-09T06:23:17;3.8;;;1.7;;
56593;SDS011;42474;51.660;5.824;2022-09-09T06:28:17;4.8;;;2.2;;
56593;SDS011;42474;51.660;5.824;2022-09-09T06:33:17;6.3;;;2.1;;
56593;SDS011;42474;51.660;5.824;2022-09-09T06:38:17;7.1;;;2.3;;
56593;SDS011;42474;51.660;5.824;2022-09-09T06:43:17;6.6;;;2.4;;
56593;SDS011;42474;51.660;5.824;2022-09-09T06:48:17;6.4;;;2.3;;
56593;SDS011;42474;51.660;5.824;2022-09-09T06:53:17;4.8;;;1.8;;
56593;SDS011;42474;51.660;5.824;2022-09-09T06:58:17;6.3;;;2.2;;
56593;SDS011;42474;51.660;5.824;2022-09-09T07:03:17;6.7;;;1.9;;
56593;SDS011;42474;51.660;5.824;2022-09-09T07:08:17;6.3;;;2.3;;
56593;SDS011;42474;51.660;5.824;2022-09-09T07:13:17;6.5;;;2.3;;
56593;SDS011;42474;51.660;5.824;2022-09-09T07:18:17;6.5;;;2.2;;
56593;SDS011;42474;51.660;5.824;2022-09-09T07:23:17;6.0;;;2.4;;
56593;SDS011;42474;51.660;5.824;2022-09-09T07:28:17;6.6;;;2.7;;
56593;SDS011;42474;51.660;5.824;2022-09-09T07:33:17;7.0;;;2.2;;
56593;SDS011;42474;51.660;5.824;2022-09-09T07:38:17;7.4;;;2.1;;
56593;SDS011;42474;51.660;5.824;2022-09-09T07:43:17;7.3;;;2.2;;
56593;SDS011;42474;51.660;5.824;2022-09-09T07:48:17;6.8;;;2.1;;
56593;SDS011;42474;51.660;5.824;2022-09-09T07:53:17;8.3;;;2.2;;
56593;SDS011;42474;51.660;5.824;2022-09-09T07:58:17;4.6;;;2.2;;
56593;SDS011;42474;51.660;5.824;2022-09-09T08:03:17;6.2;;;2.1;;
56593;SDS011;42474;51.660;5.824;2022-09-09T08:08:17;5.3;;;2.0;;
56593;SDS011;42474;51.660;5.824;2022-09-09T08:13:17;4.6;;;1.6;;
56593;SDS011;42474;51.660;5.824;2022-09-09T08:18:17;4.2;;;1.4;;
56593;SDS011;42474;51.660;5.824;2022-09-09T08:23:17;4.4;;;1.7;;
56593;SDS011;42474;51.660;5.824;2022-09-09T08:28:17;3.5;;;1.8;;
56593;SDS011;42474;51.660;5.824;2022-09-09T08:33:17;7.1;;;2.3;;
56593;SDS011;42474;51.660;5.824;2022-09-09T08:38:17;4.1;;;1.7;;
56593;SDS011;42474;51.660;5.824;2022-09-09T08:43:17;4.9;;;1.8;;
56593;SDS011;42474;51.660;5.824;2022-09-09T08:48:55;5.9;;;1.9;;
56593;SDS011;42474;51.660;5.824;2022-09-09T08:53:23;6.0;;;1.7;;
56593;SDS011;42474;51.660;5.824;2022-09-09T08:58:25;5.4;;;1.7;;
56593;SDS011;42474;51.660;5.824;2022-09-09T09:03:22;4.0;;;1.3;;
56593;SDS011;42474;51.660;5.824;2022-09-09T09:08:46;3.1;;;1.3;;
56593;SDS011;42474;51.660;5.824;2022-09-09T09:13:18;3.3;;;1.4;;
56593;SDS011;42474;51.660;5.824;2022-09-09T09:18:17;4.3;;;1.3;;
56593;SDS011;42474;51.660;5.824;2022-09-09T09:23:22;5.0;;;1.4;;
56593;SDS011;42474;51.660;5.824;2022-09-09T09:28:17;4.5;;;1.3;;
56593;SDS011;42474;51.660;5.824;2022-09-09T09:33:28;4.3;;;1.2;;
56593;SDS011;42474;51.660;5.824;2022-09-09T09:38:19;3.9;;;1.2;;
56593;SDS011;42474;51.660;5.824;2022-09-09T09:43:18;5.3;;;1.4;;
56593;SDS011;42474;51.660;5.824;2022-09-09T09:48:17;5.2;;;1.3;;
56593;SDS011;42474;51.660;5.824;2022-09-09T09:53:19;4.1;;;1.2;;
56593;SDS011;42474;51.660;5.824;2022-09-09T09:58:17;4.6;;;1.6;;
56593;SDS011;42474;51.660;5.824;2022-09-09T10:03:23;3.8;;;1.3;;
56593;SDS011;42474;51.660;5.824;2022-09-09T10:08:17;4.3;;;1.2;;
56593;SDS011;42474;51.660;5.824;2022-09-09T10:13:20;4.5;;;1.6;;
56593;SDS011;42474;51.660;5.824;2022-09-09T10:18:45;4.4;;;1.5;;
56593;SDS011;42474;51.660;5.824;2022-09-09T10:23:41;5.4;;;1.7;;
56593;SDS011;42474;51.660;5.824;2022-09-09T10:29:14;4.7;;;1.5;;
56593;SDS011;42474;51.660;5.824;2022-09-09T10:33:28;3.1;;;1.3;;
56593;SDS011;42474;51.660;5.824;2022-09-09T10:38:19;4.9;;;1.3;;
56593;SDS011;42474;51.660;5.824;2022-09-09T10:43:20;3.6;;;1.3;;
56593;SDS011;42474;51.660;5.824;2022-09-09T10:48:31;4.2;;;1.1;;
56593;SDS011;42474;51.660;5.824;2022-09-09T10:54:02;5.4;;;1.2;;
56593;SDS011;42474;51.660;5.824;2022-09-09T10:58:18;3.4;;;1.1;;
56593;SDS011;42474;51.660;5.824;2022-09-09T11:03:28;3.0;;;1.3;;
56593;SDS011;42474;51.660;5.824;2022-09-09T11:08:18;4.8;;;1.4;;
56593;SDS011;42474;51.660;5.824;2022-09-09T11:13:18;4.0;;;1.2;;
56593;SDS011;42474;51.660;5.824;2022-09-09T11:18:20;4.3;;;1.4;;
56593;SDS011;42474;51.660;5.824;2022-09-09T11:23:18;5.5;;;1.5;;
56593;SDS011;42474;51.660;5.824;2022-09-09T11:29:15;3.7;;;1.3;;
56593;SDS011;42474;51.660;5.824;2022-09-09T11:34:42;6.1;;;1.7;;
56593;SDS011;42474;51.660;5.824;2022-09-09T11:39:57;5.9;;;1.7;;
56593;SDS011;42474;51.660;5.824;2022-09-09T11:43:24;5.1;;;1.9;;
56593;SDS011;42474;51.660;5.824;2022-09-09T11:48:26;4.4;;;1.6;;
56593;SDS011;42474;51.660;5.824;2022-09-09T11:53:22;2.8;;;1.7;;
56593;SDS011;42474;51.660;5.824;2022-09-09T11:58:18;3.3;;;1.6;;
56593;SDS011;42474;51.660;5.824;2022-09-09T12:03:40;3.4;;;1.3;;
56593;SDS011;42474;51.660;5.824;2022-09-09T12:08:28;7.3;;;1.5;;
56593;SDS011;42474;51.660;5.824;2022-09-09T12:13:18;3.0;;;1.2;;
56593;SDS011;42474;51.660;5.824;2022-09-09T12:18:33;3.0;;;1.0;;
56593;SDS011;42474;51.660;5.824;2022-09-09T12:23:30;3.4;;;1.3;;
56593;SDS011;42474;51.660;5.824;2022-09-09T12:28:26;2.6;;;1.2;;
56593;SDS011;42474;51.660;5.824;2022-09-09T12:33:18;2.5;;;1.5;;
56593;SDS011;42474;51.660;5.824;2022-09-09T12:38:26;4.7;;;1.6;;
56593;SDS011;42474;51.660;5.824;2022-09-09T12:43:18;4.0;;;1.6;;
56593;SDS011;42474;51.660;5.824;2022-09-09T12:48:19;5.5;;;2.1;;
56593;SDS011;42474;51.660;5.824;2022-09-09T12:53:29;3.8;;;1.9;;
56593;SDS011;42474;51.660;5.824;2022-09-09T12:58:18;3.8;;;1.7;;
56593;SDS011;42474;51.660;5.824;2022-09-09T13:03:18;4.6;;;1.5;;
56593;SDS011;42474;51.660;5.824;2022-09-09T13:08:17;2.9;;;1.3;;
56593;SDS011;42474;51.660;5.824;2022-09-09T13:13:18;5.5;;;1.6;;
56593;SDS011;42474;51.660;5.824;2022-09-09T13:18:18;4.5;;;1.7;;
56593;SDS011;42474;51.660;5.824;2022-09-09T13:23:18;3.9;;;1.5;;
56593;SDS011;42474;51.660;5.824;2022-09-09T13:28:26;3.8;;;1.6;;
56593;SDS011;42474;51.660;5.824;2022-09-09T13:33:22;4.1;;;1.7;;
56593;SDS011;42474;51.660;5.824;2022-09-09T13:38:17;4.2;;;1.4;;
56593;SDS011;42474;51.660;5.824;2022-09-09T13:43:24;3.6;;;1.7;;
56593;SDS011;42474;51.660;5.824;2022-09-09T13:48:18;4.6;;;1.8;;
56593;SDS011;42474;51.660;5.824;2022-09-09T13:53:17;5.5;;;1.9;;
56593;SDS011;42474;51.660;5.824;2022-09-09T13:58:17;4.6;;;1.8;;
56593;SDS011;42474;51.660;5.824;2022-09-09T14:03:17;2.9;;;1.9;;
56593;SDS011;42474;51.660;5.824;2022-09-09T14:08:20;4.0;;;1.9;;
56593;SDS011;42474;51.660;5.824;2022-09-09T14:13:17;5.3;;;2.0;;
56593;SDS011;42474;51.660;5.824;2022-09-09T14:18:17;3.9;;;2.2;;
56593;SDS011;42474;51.660;5.824;2022-09-09T14:23:17;6.1;;;2.3;;
56593;SDS011;42474;51.660;5.824;2022-09-09T14:28:17;2.0;;;1.0;;
56593;SDS011;42474;51.660;5.824;2022-09-09T14:33:17;1.8;;;1.1;;
56593;SDS011;42474;51.660;5.824;2022-09-09T14:38:17;2.7;;;1.0;;
56593;SDS011;42474;51.660;5.824;2022-09-09T14:43:17;2.8;;;1.0;;
56593;SDS011;42474;51.660;5.824;2022-09-09T14:48:17;2.8;;;1.2;;
56593;SDS011;42474;51.660;5.824;2022-09-09T14:53:17;3.6;;;1.3;;
56593;SDS011;42474;51.660;5.824;2022-09-09T14:58:17;4.7;;;1.4;;
56593;SDS011;42474;51.660;5.824;2022-09-09T15:03:17;3.2;;;1.2;;
56593;SDS011;42474;51.660;5.824;2022-09-09T15:08:17;4.8;;;1.3;;
56593;SDS011;42474;51.660;5.824;2022-09-09T15:13:17;2.8;;;1.3;;
56593;SDS011;42474;51.660;5.824;2022-09-09T15:18:17;4.6;;;1.3;;
56593;SDS011;42474;51.660;5.824;2022-09-09T15:23:17;2.8;;;1.1;;
56593;SDS011;42474;51.660;5.824;2022-09-09T15:28:17;2.6;;;1.1;;
56593;SDS011;42474;51.660;5.824;2022-09-09T15:33:17;3.5;;;1.1;;
56593;SDS011;42474;51.660;5.824;2022-09-09T15:38:17;3.9;;;1.1;;
56593;SDS011;42474;51.660;5.824;2022-09-09T15:43:17;1.4;;;1.0;;
56593;SDS011;42474;51.660;5.824;2022-09-09T15:48:17;2.8;;;1.2;;
56593;SDS011;42474;51.660;5.824;2022-09-09T15:53:17;2.7;;;1.2;;
56593;SDS011;42474;51.660;5.824;2022-09-09T15:58:17;1.8;;;1.0;;
56593;SDS011;42474;51.660;5.824;2022-09-09T16:03:17;2.1;;;0.7;;
56593;SDS011;42474;51.660;5.824;2022-09-09T16:08:17;1.5;;;0.5;;
56593;SDS011;42474;51.660;5.824;2022-09-09T16:13:17;1.5;;;0.5;;
56593;SDS011;42474;51.660;5.824;2022-09-09T16:18:17;1.1;;;0.6;;
56593;SDS011;42474;51.660;5.824;2022-09-09T16:23:17;2.5;;;0.7;;
56593;SDS011;42474;51.660;5.824;2022-09-09T16:28:17;1.8;;;0.7;;
56593;SDS011;42474;51.660;5.824;2022-09-09T16:33:17;0.8;;;0.5;;
56593;SDS011;42474;51.660;5.824;2022-09-09T16:38:17;1.3;;;0.8;;
56593;SDS011;42474;51.660;5.824;2022-09-09T16:43:17;1.1;;;0.7;;
56593;SDS011;42474;51.660;5.824;2022-09-09T16:48:17;1.7;;;0.8;;
56593;SDS011;42474;51.660;5.824;2022-09-09T16:53:17;1.1;;;0.7;;
56593;SDS011;42474;51.660;5.824;2022-09-09T16:58:17;1.8;;;0.9;;
56593;SDS011;42474;51.660;5.824;2022-09-09T17:03:17;0.8;;;0.7;;
56593;SDS011;42474;51.660;5.824;2022-09-09T17:08:17;1.4;;;0.8;;
56593;SDS011;42474;51.660;5.824;2022-09-09T17:13:17;2.0;;;1.0;;
56593;SDS011;42474;51.660;5.824;2022-09-09T17:18:17;1.9;;;1.2;;
56593;SDS011;42474;51.660;5.824;2022-09-09T17:23:17;1.6;;;1.3;;
56593;SDS011;42474;51.660;5.824;2022-09-09T17:28:17;1.9;;;1.4;;
56593;SDS011;42474;51.660;5.824;2022-09-09T17:33:17;2.4;;;1.5;;
56593;SDS011;42474;51.660;5.824;2022-09-09T17:38:17;3.3;;;1.6;;
56593;SDS011;42474;51.660;5.824;2022-09-09T17:43:17;2.1;;;1.5;;
56593;SDS011;42474;51.660;5.824;2022-09-09T17:48:17;2.4;;;1.5;;
56593;SDS011;42474;51.660;5.824;2022-09-09T17:53:17;2.3;;;1.3;;
56593;SDS011;42474;51.660;5.824;2022-09-09T17:58:17;2.5;;;1.2;;
56593;SDS011;42474;51.660;5.824;2022-09-09T18:03:17;3.0;;;1.4;;
56593;SDS011;42474;51.660;5.824;2022-09-09T18:08:17;2.6;;;1.3;;
56593;SDS011;42474;51.660;5.824;2022-09-09T18:13:17;4.1;;;1.3;;
56593;SDS011;42474;51.660;5.824;2022-09-09T18:18:17;1.7;;;1.0;;
56593;SDS011;42474;51.660;5.824;2022-09-09T18:23:17;1.8;;;1.2;;
56593;SDS011;42474;51.660;5.824;2022-09-09T18:28:17;1.8;;;1.1;;
56593;SDS011;42474;51.660;5.824;2022-09-09T18:33:17;1.6;;;1.0;;
56593;SDS011;42474;51.660;5.824;2022-09-09T18:38:17;1.4;;;0.9;;
56593;SDS011;42474;51.660;5.824;2022-09-09T18:43:17;3.2;;;1.1;;
56593;SDS011;42474;51.660;5.824;2022-09-09T18:48:17;1.8;;;1.1;;
56593;SDS011;42474;51.660;5.824;2022-09-09T18:53:17;2.2;;;1.3;;
56593;SDS011;42474;51.660;5.824;2022-09-09T18:58:17;2.1;;;1.5;;
56593;SDS011;42474;51.660;5.824;2022-09-09T19:03:17;2.1;;;1.3;;
56593;SDS011;42474;51.660;5.824;2022-09-09T19:08:17;2.2;;;1.6;;
56593;SDS011;42474;51.660;5.824;2022-09-09T19:13:17;2.9;;;1.6;;
56593;SDS011;42474;51.660;5.824;2022-09-09T19:18:17;2.6;;;1.5;;
56593;SDS011;42474;51.660;5.824;2022-09-09T19:23:17;2.6;;;1.8;;
56593;SDS011;42474;51.660;5.824;2022-09-09T19:28:17;4.0;;;1.9;;
56593;SDS011;42474;51.660;5.824;2022-09-09T19:33:17;3.3;;;1.9;;
56593;SDS011;42474;51.660;5.824;2022-09-09T19:38:17;2.2;;;1.6;;
56593;SDS011;42474;51.660;5.824;2022-09-09T19:43:17;4.9;;;2.1;;
56593;SDS011;42474;51.660;5.824;2022-09-09T19:48:17;2.2;;;1.9;;
56593;SDS011;42474;51.660;5.824;2022-09-09T19:53:17;4.0;;;2.3;;
56593;SDS011;42474;51.660;5.824;2022-09-09T19:58:17;4.0;;;2.0;;
56593;SDS011;42474;51.660;5.824;2022-09-09T20:03:17;4.0;;;2.2;;
56593;SDS011;42474;51.660;5.824;2022-09-09T20:08:17;3.5;;;2.3;;
56593;SDS011;42474;51.660;5.824;2022-09-09T20:13:17;3.2;;;2.4;;
56593;SDS011;42474;51.660;5.824;2022-09-09T20:18:17;3.6;;;2.4;;
56593;SDS011;42474;51.660;5.824;2022-09-09T20:23:17;3.2;;;2.3;;
56593;SDS011;42474;51.660;5.824;2022-09-09T20:28:17;4.1;;;2.4;;
56593;SDS011;42474;51.660;5.824;2022-09-09T20:33:17;3.2;;;2.4;;
56593;SDS011;42474;51.660;5.824;2022-09-09T20:38:17;3.5;;;2.3;;
56593;SDS011;42474;51.660;5.824;2022-09-09T20:43:17;3.6;;;2.4;;
56593;SDS011;42474;51.660;5.824;2022-09-09T20:48:17;3.0;;;2.3;;
56593;SDS011;42474;51.660;5.824;2022-09-09T20:53:17;3.1;;;2.3;;
56593;SDS011;42474;51.660;5.824;2022-09-09T20:58:17;3.0;;;2.4;;
56593;SDS011;42474;51.660;5.824;2022-09-09T21:03:18;3.8;;;2.3;;
56593;SDS011;42474;51.660;5.824;2022-09-09T21:08:17;3.2;;;2.2;;
56593;SDS011;42474;51.660;5.824;2022-09-09T21:13:17;3.0;;;2.3;;
56593;SDS011;42474;51.660;5.824;2022-09-09T21:18:18;4.5;;;2.6;;
56593;SDS011;42474;51.660;5.824;2022-09-09T21:23:18;3.5;;;2.6;;
56593;SDS011;42474;51.660;5.824;2022-09-09T21:28:17;3.6;;;2.5;;
56593;SDS011;42474;51.660;5.824;2022-09-09T21:33:18;4.8;;;3.1;;
56593;SDS011;42474;51.660;5.824;2022-09-09T21:38:19;5.3;;;2.7;;
56593;SDS011;42474;51.660;5.824;2022-09-09T21:43:18;4.0;;;2.8;;
56593;SDS011;42474;51.660;5.824;2022-09-09T21:48:17;3.7;;;2.8;;
56593;SDS011;42474;51.660;5.824;2022-09-09T21:53:18;4.5;;;3.2;;
56593;SDS011;42474;51.660;5.824;2022-09-09T21:58:17;5.6;;;2.7;;
56593;SDS011;42474;51.660;5.824;2022-09-09T22:08:17;3.9;;;2.4;;
56593;SDS011;42474;51.660;5.824;2022-09-09T22:13:17;6.2;;;2.7;;
56593;SDS011;42474;51.660;5.824;2022-09-09T22:18:17;5.3;;;2.2;;
56593;SDS011;42474;51.660;5.824;2022-09-09T22:23:17;4.2;;;2.3;;
56593;SDS011;42474;51.660;5.824;2022-09-09T22:28:17;6.6;;;2.4;;
56593;SDS011;42474;51.660;5.824;2022-09-09T22:33:17;5.2;;;2.2;;
56593;SDS011;42474;51.660;5.824;2022-09-09T22:38:17;6.2;;;2.1;;
56593;SDS011;42474;51.660;5.824;2022-09-09T22:43:18;4.8;;;2.3;;
56593;SDS011;42474;51.660;5.824;2022-09-09T22:48:17;5.1;;;2.4;;
56593;SDS011;42474;51.660;5.824;2022-09-09T22:53:17;5.5;;;2.4;;
56593;SDS011;42474;51.660;5.824;2022-09-09T22:58:17;5.1;;;2.0;;
56593;SDS011;42474;51.660;5.824;2022-09-09T23:03:18;4.0;;;2.2;;
56593;SDS011;42474;51.660;5.824;2022-09-09T23:08:17;4.9;;;2.2;;
56593;SDS011;42474;51.660;5.824;2022-09-09T23:13:17;5.3;;;2.3;;
56593;SDS011;42474;51.660;5.824;2022-09-09T23:18:17;4.6;;;2.3;;
56593;SDS011;42474;51.660;5.824;2022-09-09T23:23:17;6.3;;;2.5;;
56593;SDS011;42474;51.660;5.824;2022-09-09T23:28:17;8.1;;;2.7;;
56593;SDS011;42474;51.660;5.824;2022-09-09T23:33:17;5.2;;;2.5;;
56593;SDS011;42474;51.660;5.824;2022-09-09T23:38:17;7.3;;;3.0;;
56593;SDS011;42474;51.660;5.824;2022-09-09T23:43:17;6.1;;;2.6;;
56593;SDS011;42474;51.660;5.824;2022-09-09T23:48:17;5.1;;;2.5;;
56593;SDS011;42474;51.660;5.824;2022-09-09T23:53:17;5.3;;;2.3;;
56593;SDS011;42474;51.660;5.824;2022-09-09T23:58:17;6.5;;;2.3;;
